createdAt,value
2022-10-05T00:01:32.088Z,99.90
2022-10-05T00:08:17.916Z,99.90
2022-10-05T00:15:01.184Z,99.90
2022-10-05T00:21:43.537Z,99.90
2022-10-05T00:28:30.241Z,99.90
2022-10-05T00:35:14.357Z,99.90
2022-10-05T00:42:15.782Z,99.90
2022-10-05T00:49:27.022Z,99.90
2022-10-05T00:56:23.567Z,99.90
2022-10-05T01:03:22.192Z,99.90
2022-10-05T01:10:10.023Z,99.90
2022-10-05T01:17:12.421Z,99.90
2022-10-05T01:24:22.561Z,99.90
2022-10-05T01:31:15.093Z,99.90
2022-10-05T01:38:16.213Z,99.90
2022-10-05T01:45:13.498Z,99.90
2022-10-05T01:52:07.558Z,99.90
2022-10-05T01:59:19.075Z,99.90
2022-10-05T02:06:11.431Z,99.90
2022-10-05T02:13:00.524Z,99.90
2022-10-05T02:19:51.471Z,99.90
2022-10-05T02:26:37.019Z,99.90
2022-10-05T02:33:31.841Z,99.90
2022-10-05T02:40:49.782Z,99.90
2022-10-05T02:48:09.956Z,99.90
2022-10-05T02:55:25.039Z,99.90
2022-10-05T03:02:32.034Z,99.90
2022-10-05T03:09:20.593Z,99.90
2022-10-05T03:16:30.353Z,99.90
2022-10-05T03:23:32.818Z,99.90
2022-10-05T03:30:25.868Z,99.90
2022-10-05T03:37:30.377Z,99.90
2022-10-05T03:44:36.538Z,99.90
2022-10-05T03:51:31.035Z,99.90
2022-10-05T03:58:50.916Z,99.90
2022-10-05T04:05:43.332Z,99.90
2022-10-05T04:12:43.625Z,99.90
2022-10-05T04:19:44.216Z,99.90
2022-10-05T04:26:50.413Z,99.90
2022-10-05T04:33:33.426Z,99.90
2022-10-05T04:40:31.346Z,99.90
2022-10-05T04:47:32.645Z,99.90
2022-10-05T04:54:37.299Z,99.90
2022-10-05T05:02:03.277Z,99.90
2022-10-05T05:09:04.495Z,99.90
2022-10-05T05:16:09.813Z,99.90
2022-10-05T05:23:10.981Z,99.90
2022-10-05T05:30:06.591Z,99.90
2022-10-05T05:37:18.017Z,99.90
2022-10-05T05:44:05.991Z,99.90
2022-10-05T05:50:58.209Z,99.90
2022-10-05T05:57:46.517Z,99.90
2022-10-05T06:04:37.493Z,99.90
2022-10-05T06:11:40.995Z,99.90
2022-10-05T06:18:25.461Z,99.90
2022-10-05T06:25:13.668Z,99.90
2022-10-05T06:32:18.437Z,99.90
2022-10-05T06:39:38.419Z,99.90
2022-10-05T06:46:32.486Z,99.90
2022-10-05T06:54:08.066Z,99.90
2022-10-05T07:00:57.879Z,99.90
2022-10-05T07:07:55.199Z,97.30
2022-10-05T07:14:56.388Z,94.90
2022-10-05T07:21:45.741Z,95.40
2022-10-05T07:28:40.226Z,93.50
2022-10-05T07:35:44.256Z,92.50
2022-10-05T07:42:48.744Z,93.40
2022-10-05T07:50:07.229Z,93.30
2022-10-05T07:57:28.960Z,93.20
2022-10-05T08:04:25.086Z,92.60
2022-10-05T08:11:13.568Z,91.60
2022-10-05T08:18:02.664Z,90.60
2022-10-05T08:25:07.086Z,90.60
2022-10-05T08:31:57.671Z,90.00
2022-10-05T08:38:41.810Z,88.40
2022-10-05T08:45:47.670Z,87.60
2022-10-05T08:53:12.235Z,86.30
2022-10-05T09:00:12.684Z,86.30
2022-10-05T09:07:13.144Z,85.20
2022-10-05T09:14:29.340Z,84.50
2022-10-05T09:21:38.989Z,84.20
2022-10-05T09:28:42.904Z,82.90
2022-10-05T09:35:58.107Z,82.60
2022-10-05T09:42:52.607Z,81.90
2022-10-05T09:50:02.500Z,81.00
2022-10-05T09:57:12.621Z,81.70
2022-10-05T10:04:00.989Z,81.00
2022-10-05T10:11:01.821Z,81.00
2022-10-05T10:18:17.555Z,82.60
2022-10-05T10:25:32.445Z,82.20
2022-10-05T10:32:31.427Z,83.30
2022-10-05T10:39:40.657Z,88.80
2022-10-05T10:46:48.202Z,91.50
2022-10-05T10:54:23.365Z,92.40
2022-10-05T11:01:42.508Z,93.80
2022-10-05T11:08:55.058Z,95.50
2022-10-05T11:16:22.354Z,96.90
2022-10-05T11:23:36.526Z,98.00
2022-10-05T11:30:47.504Z,98.70
2022-10-05T11:37:54.652Z,99.40
2022-10-05T11:44:46.669Z,99.00
2022-10-05T11:52:13.037Z,98.90
2022-10-05T11:59:14.208Z,98.70
2022-10-05T12:06:22.113Z,96.10
2022-10-05T12:13:19.397Z,95.20
2022-10-05T12:20:21.879Z,95.50
2022-10-05T12:27:04.136Z,95.70
2022-10-05T12:34:07.522Z,95.20
2022-10-05T12:40:58.762Z,95.40
2022-10-05T12:47:56.018Z,95.00
2022-10-05T12:54:50.654Z,94.80
2022-10-05T13:01:41.911Z,94.90
2022-10-05T13:08:27.276Z,94.70
2022-10-05T13:15:19.927Z,93.50
2022-10-05T13:22:29.202Z,92.00
2022-10-05T13:29:37.394Z,90.70
2022-10-05T13:37:07.570Z,89.60
2022-10-05T13:44:17.651Z,90.00
2022-10-05T13:51:19.150Z,89.60
2022-10-05T13:58:20.155Z,89.70
2022-10-05T14:05:16.969Z,87.70
2022-10-05T14:12:18.716Z,86.70
2022-10-05T14:19:04.040Z,86.70
2022-10-05T14:25:57.914Z,91.60
2022-10-05T14:32:52.286Z,95.00
2022-10-05T14:39:40.243Z,96.90
2022-10-05T14:46:29.507Z,98.20
2022-10-05T14:53:12.142Z,98.80
2022-10-05T15:00:12.471Z,99.60
2022-10-05T15:07:16.939Z,99.90
2022-10-05T15:14:00.261Z,99.90
2022-10-05T15:21:24.018Z,99.90
2022-10-05T15:28:12.981Z,99.90
2022-10-05T15:35:35.942Z,99.90
2022-10-05T15:42:25.185Z,99.90
2022-10-05T15:49:25.438Z,99.90
2022-10-05T15:56:22.239Z,99.90
2022-10-05T16:03:41.551Z,99.90
2022-10-05T16:10:24.216Z,99.90
2022-10-05T16:17:20.914Z,99.90
2022-10-05T16:24:06.515Z,99.90
2022-10-05T16:31:00.669Z,99.90
2022-10-05T16:38:07.709Z,99.90
2022-10-05T16:45:06.780Z,99.90
2022-10-05T16:51:58.954Z,99.90
2022-10-05T16:59:05.911Z,99.90
2022-10-05T17:06:07.200Z,99.90
2022-10-05T17:13:19.958Z,99.90
2022-10-05T17:20:14.115Z,99.90
2022-10-05T17:27:20.822Z,99.90
2022-10-05T17:34:26.162Z,99.90
2022-10-05T17:41:28.640Z,99.90
2022-10-05T17:48:12.648Z,99.90
2022-10-05T17:55:19.464Z,99.90
2022-10-05T18:02:22.003Z,99.90
2022-10-05T18:09:23.045Z,99.90
2022-10-05T18:16:09.441Z,99.90
2022-10-05T18:22:54.148Z,99.90
2022-10-05T18:30:05.032Z,99.90
2022-10-05T18:36:53.631Z,99.90
2022-10-05T18:43:57.882Z,99.90
2022-10-05T18:51:03.223Z,99.90
2022-10-05T18:58:07.336Z,99.90
2022-10-05T19:05:42.464Z,99.90
2022-10-05T19:12:29.418Z,99.90
2022-10-05T19:19:30.717Z,99.90
2022-10-05T19:26:40.795Z,99.90
2022-10-05T19:33:51.640Z,99.90
2022-10-05T19:40:56.956Z,99.90
2022-10-05T19:47:49.368Z,99.90
2022-10-05T19:54:32.218Z,99.90
2022-10-05T20:01:35.399Z,99.90
2022-10-05T20:08:20.415Z,99.90
2022-10-05T20:15:27.572Z,99.90
2022-10-05T20:22:40.775Z,99.90
2022-10-05T20:29:23.212Z,99.90
2022-10-05T20:36:05.826Z,99.90
2022-10-05T20:42:48.208Z,99.90
2022-10-05T20:49:32.163Z,99.90
2022-10-05T20:56:14.588Z,99.90
2022-10-05T21:02:57.292Z,99.90
2022-10-05T21:09:40.869Z,99.90
2022-10-05T21:16:24.729Z,99.90
2022-10-05T21:23:07.110Z,99.90
2022-10-05T21:29:49.453Z,99.90
2022-10-05T21:36:32.738Z,99.90
2022-10-05T21:43:15.038Z,99.90
2022-10-05T21:49:57.474Z,99.90
2022-10-05T21:56:43.964Z,99.90
2022-10-05T22:03:26.373Z,99.90
2022-10-05T22:10:09.368Z,99.90
2022-10-05T22:16:53.160Z,99.90
2022-10-05T22:23:35.920Z,99.90
2022-10-05T22:30:18.306Z,99.90
2022-10-05T22:37:02.063Z,99.90
2022-10-05T22:43:44.730Z,99.90
2022-10-05T22:50:27.099Z,99.90
2022-10-05T22:57:09.420Z,99.90
2022-10-05T23:03:52.060Z,99.90
2022-10-05T23:10:34.450Z,99.90
2022-10-05T23:17:20.874Z,99.90
2022-10-05T23:24:03.563Z,99.90
2022-10-05T23:30:45.970Z,99.90
2022-10-05T23:37:29.052Z,99.90
2022-10-05T23:44:11.447Z,99.90
2022-10-05T23:50:54.084Z,99.90
2022-10-05T23:57:36.585Z,99.90
